createdAt,value
2018-04-16T00:01:05.685Z,0
2018-04-16T00:02:15.834Z,0
2018-04-16T00:03:26.012Z,0
2018-04-16T00:04:36.164Z,0
2018-04-16T00:05:46.405Z,0
2018-04-16T00:06:56.585Z,0
2018-04-16T00:08:06.773Z,0
2018-04-16T00:09:16.657Z,0
2018-04-16T00:10:26.812Z,0
2018-04-16T00:11:36.977Z,0
2018-04-16T00:12:47.123Z,0
2018-04-16T00:13:57.276Z,0
2018-04-16T00:15:07.529Z,0
2018-04-16T00:16:17.756Z,0
2018-04-16T00:17:27.888Z,0
2018-04-16T00:18:38.328Z,0
2018-04-16T00:19:48.482Z,0
2018-04-16T00:20:58.707Z,0
2018-04-16T00:22:08.889Z,0
2018-04-16T00:23:19.094Z,0
2018-04-16T00:24:29.370Z,0
2018-04-16T00:25:39.549Z,0
2018-04-16T00:26:49.693Z,0
2018-04-16T00:27:59.849Z,0
2018-04-16T00:29:10.012Z,0
2018-04-16T00:30:20.159Z,0
2018-04-16T00:31:30.323Z,0
2018-04-16T00:32:40.476Z,0
2018-04-16T00:33:50.653Z,0
2018-04-16T00:35:00.895Z,0
2018-04-16T00:36:11.056Z,0
2018-04-16T00:37:21.294Z,0
2018-04-16T00:38:31.274Z,0
2018-04-16T00:39:41.421Z,0
2018-04-16T00:40:51.713Z,0
2018-04-16T00:42:01.616Z,0
2018-04-16T00:43:11.798Z,0
2018-04-16T00:44:22.197Z,0
2018-04-16T00:45:32.437Z,0
2018-04-16T00:46:42.569Z,0
2018-04-16T00:47:52.739Z,0
2018-04-16T00:49:02.923Z,0
2018-04-16T00:50:13.222Z,0
2018-04-16T00:51:23.431Z,0
2018-04-16T00:52:33.574Z,0
2018-04-16T00:53:43.736Z,0
2018-04-16T00:54:53.705Z,0
2018-04-16T00:56:03.929Z,0
2018-04-16T00:57:14.103Z,0
2018-04-16T00:58:24.304Z,0
2018-04-16T00:59:34.241Z,0
2018-04-16T01:00:44.121Z,0
2018-04-16T01:01:54.032Z,0
2018-04-16T01:03:04.222Z,0
2018-04-16T01:04:14.469Z,0
2018-04-16T01:05:24.654Z,0
2018-04-16T01:06:34.797Z,0
2018-04-16T01:07:44.725Z,0
2018-04-16T01:08:54.913Z,0
2018-04-16T01:10:05.170Z,0
2018-04-16T01:11:15.343Z,0
2018-04-16T01:12:25.538Z,0
2018-04-16T01:13:35.426Z,0
2018-04-16T01:14:45.550Z,0
2018-04-16T01:15:55.773Z,0
2018-04-16T01:17:06.005Z,0
2018-04-16T01:18:16.151Z,0
2018-04-16T01:19:26.364Z,0
2018-04-16T01:20:36.542Z,0
2018-04-16T01:21:46.737Z,0
2018-04-16T01:22:56.917Z,0
2018-04-16T01:24:07.331Z,0
2018-04-16T01:25:17.506Z,0
2018-04-16T01:26:27.777Z,0
2018-04-16T01:27:38.034Z,0
2018-04-16T01:28:48.237Z,0
2018-04-16T01:29:58.438Z,0
2018-04-16T01:31:08.605Z,0
2018-04-16T01:32:18.807Z,0
2018-04-16T01:33:29.251Z,0
2018-04-16T01:34:39.434Z,0
2018-04-16T01:35:49.585Z,0
2018-04-16T01:36:59.829Z,0
2018-04-16T01:38:09.994Z,0
2018-04-16T01:39:20.223Z,0
2018-04-16T01:40:30.101Z,0
2018-04-16T01:41:40.229Z,0
2018-04-16T01:42:50.006Z,0
2018-04-16T01:44:00.206Z,0
2018-04-16T01:45:10.352Z,0
2018-04-16T01:46:20.329Z,0
2018-04-16T01:47:30.465Z,0
2018-04-16T01:48:40.584Z,0
2018-04-16T01:49:50.770Z,0
2018-04-16T01:51:00.930Z,0
2018-04-16T01:52:11.096Z,0
2018-04-16T01:53:21.304Z,0
2018-04-16T01:54:31.477Z,0
2018-04-16T01:55:41.742Z,0
2018-04-16T01:56:51.924Z,0
2018-04-16T01:58:02.068Z,0
2018-04-16T01:59:12.241Z,0
2018-04-16T02:00:22.395Z,0
2018-04-16T02:01:32.329Z,0
2018-04-16T02:02:42.689Z,0
2018-04-16T02:03:52.853Z,0
2018-04-16T02:05:03.023Z,0
2018-04-16T02:06:13.225Z,0
2018-04-16T02:07:23.510Z,0
2018-04-16T02:08:33.411Z,0
2018-04-16T02:09:43.597Z,0
2018-04-16T02:10:53.738Z,0
2018-04-16T02:12:03.927Z,0
2018-04-16T02:13:14.097Z,0
2018-04-16T02:14:24.016Z,0
2018-04-16T02:15:34.159Z,0
2018-04-16T02:16:44.369Z,0
2018-04-16T02:17:54.595Z,0
2018-04-16T02:19:04.774Z,0
2018-04-16T02:20:14.966Z,0
2018-04-16T02:21:25.128Z,0
2018-04-16T02:22:35.365Z,0
2018-04-16T02:23:45.544Z,0
2018-04-16T02:24:55.675Z,0
2018-04-16T02:26:05.841Z,0
2018-04-16T02:27:15.973Z,0
2018-04-16T02:28:26.191Z,0
2018-04-16T02:29:36.074Z,0
2018-04-16T02:30:46.255Z,0
2018-04-16T02:31:56.439Z,0
2018-04-16T02:33:06.563Z,0
2018-04-16T02:34:16.759Z,0
2018-04-16T02:35:26.931Z,0
2018-04-16T02:36:37.089Z,0
2018-04-16T02:37:47.406Z,0
2018-04-16T02:38:57.561Z,0
2018-04-16T02:40:07.822Z,0
2018-04-16T02:41:18.047Z,0
2018-04-16T02:42:28.287Z,0
2018-04-16T02:43:38.583Z,0
2018-04-16T02:44:48.747Z,0
2018-04-16T02:45:58.625Z,0
2018-04-16T02:47:08.773Z,0
2018-04-16T02:48:18.931Z,0
2018-04-16T02:49:29.072Z,0
2018-04-16T02:50:39.225Z,0
2018-04-16T02:51:49.398Z,0
2018-04-16T02:52:59.438Z,0
2018-04-16T02:54:09.577Z,0
2018-04-16T02:55:19.719Z,0
2018-04-16T02:56:29.945Z,0
2018-04-16T02:57:40.167Z,0
2018-04-16T02:58:50.138Z,0
2018-04-16T03:00:00.032Z,0
2018-04-16T03:01:10.205Z,0
2018-04-16T03:02:20.336Z,0
2018-04-16T03:03:30.491Z,0
2018-04-16T03:04:40.636Z,0
2018-04-16T03:05:50.865Z,0
2018-04-16T03:07:00.734Z,0
2018-04-16T03:08:10.887Z,0
2018-04-16T03:09:21.035Z,0
2018-04-16T03:10:31.217Z,0
2018-04-16T03:11:40.997Z,0
2018-04-16T03:12:50.939Z,0
2018-04-16T03:14:00.817Z,0
2018-04-16T03:15:11.039Z,0
2018-04-16T03:16:21.188Z,0
2018-04-16T03:17:31.131Z,0
2018-04-16T03:18:41.275Z,0
2018-04-16T03:19:51.456Z,0
2018-04-16T03:21:01.634Z,0
2018-04-16T03:22:11.935Z,0
2018-04-16T03:23:22.088Z,0
2018-04-16T03:24:32.366Z,0
2018-04-16T03:25:42.775Z,0
2018-04-16T03:26:52.916Z,0
2018-04-16T03:28:03.078Z,0
2018-04-16T03:29:13.228Z,0
2018-04-16T03:30:23.481Z,0
2018-04-16T03:31:33.666Z,0
2018-04-16T03:32:43.847Z,0
2018-04-16T03:33:54.005Z,0
2018-04-16T03:35:04.185Z,0
2018-04-16T03:36:14.323Z,0
2018-04-16T03:37:24.465Z,0
2018-04-16T03:38:34.636Z,0
2018-04-16T03:39:44.797Z,0
2018-04-16T03:40:55.029Z,0
2018-04-16T03:42:05.234Z,0
2018-04-16T03:43:15.383Z,0
2018-04-16T03:44:25.611Z,0
2018-04-16T03:45:35.841Z,0
2018-04-16T03:46:46.032Z,0
2018-04-16T03:47:56.172Z,0
2018-04-16T03:49:06.350Z,0
2018-04-16T03:50:16.541Z,4
2018-04-16T03:51:26.670Z,4
2018-04-16T03:52:36.853Z,0
2018-04-16T03:53:47.053Z,4
2018-04-16T03:54:57.225Z,4
2018-04-16T03:56:07.387Z,4
2018-04-16T03:57:17.521Z,4
2018-04-16T03:58:27.716Z,4
2018-04-16T03:59:37.867Z,8
2018-04-16T04:00:47.994Z,8
2018-04-16T04:01:57.857Z,8
2018-04-16T04:03:07.741Z,8
2018-04-16T04:04:18.014Z,8
2018-04-16T04:05:28.244Z,8
2018-04-16T04:06:38.439Z,12
2018-04-16T04:07:48.334Z,12
2018-04-16T04:08:58.503Z,16
2018-04-16T04:10:08.682Z,16
2018-04-16T04:11:18.826Z,16
2018-04-16T04:12:28.968Z,20
2018-04-16T04:13:39.099Z,20
2018-04-16T04:14:49.241Z,20
2018-04-16T04:15:59.373Z,24
2018-04-16T04:17:09.520Z,24
2018-04-16T04:18:19.722Z,24
2018-04-16T04:19:29.846Z,24
2018-04-16T04:20:40.023Z,28
2018-04-16T04:21:50.216Z,32
2018-04-16T04:23:00.487Z,32
2018-04-16T04:24:10.810Z,36
2018-04-16T04:25:21.020Z,40
2018-04-16T04:26:31.275Z,40
2018-04-16T04:27:41.198Z,44
2018-04-16T04:28:51.350Z,48
2018-04-16T04:30:01.479Z,52
2018-04-16T04:31:11.641Z,60
2018-04-16T04:32:21.911Z,64
2018-04-16T04:33:32.043Z,68
2018-04-16T04:34:42.339Z,76
2018-04-16T04:35:52.489Z,80
2018-04-16T04:37:02.652Z,84
2018-04-16T04:38:12.978Z,88
2018-04-16T04:39:23.112Z,96
2018-04-16T04:40:33.372Z,104
2018-04-16T04:41:43.616Z,112
2018-04-16T04:42:53.750Z,124
2018-04-16T04:44:03.969Z,136
2018-04-16T04:45:14.285Z,152
2018-04-16T04:46:24.483Z,164
2018-04-16T04:47:34.672Z,168
2018-04-16T04:48:45.009Z,180
2018-04-16T04:49:55.216Z,180
2018-04-16T04:51:05.399Z,180
2018-04-16T04:52:15.631Z,180
2018-04-16T04:53:25.765Z,184
2018-04-16T04:54:35.925Z,188
2018-04-16T04:55:45.803Z,192
2018-04-16T04:56:55.583Z,196
2018-04-16T04:58:05.763Z,208
2018-04-16T04:59:16.027Z,224
2018-04-16T05:00:26.211Z,236
2018-04-16T05:01:36.121Z,248
2018-04-16T05:02:46.270Z,260
2018-04-16T05:03:56.528Z,268
2018-04-16T05:05:06.712Z,280
2018-04-16T05:06:16.658Z,288
2018-04-16T05:07:26.818Z,296
2018-04-16T05:08:36.976Z,304
2018-04-16T05:09:46.911Z,312
2018-04-16T05:10:57.298Z,328
2018-04-16T05:12:07.459Z,352
2018-04-16T05:13:17.383Z,392
2018-04-16T05:14:27.546Z,440
2018-04-16T05:15:37.426Z,492
2018-04-16T05:16:47.614Z,544
2018-04-16T05:17:57.871Z,600
2018-04-16T05:19:08.021Z,648
2018-04-16T05:20:18.182Z,700
2018-04-16T05:21:28.358Z,764
2018-04-16T05:22:38.483Z,832
2018-04-16T05:23:48.659Z,908
2018-04-16T05:24:58.833Z,976
2018-04-16T05:26:08.965Z,1020
2018-04-16T05:27:19.156Z,1052
2018-04-16T05:28:29.322Z,1064
2018-04-16T05:29:39.478Z,1072
2018-04-16T05:30:49.638Z,1072
2018-04-16T05:31:59.784Z,1072
2018-04-16T05:33:09.941Z,1056
2018-04-16T05:34:20.088Z,1028
2018-04-16T05:35:30.357Z,996
2018-04-16T05:36:40.578Z,972
2018-04-16T05:37:50.827Z,948
2018-04-16T05:39:01.085Z,936
2018-04-16T05:40:11.314Z,940
2018-04-16T05:41:21.489Z,948
2018-04-16T05:42:31.797Z,968
2018-04-16T05:43:42.099Z,984
2018-04-16T05:44:52.244Z,1000
2018-04-16T05:46:02.445Z,1020
2018-04-16T05:47:12.652Z,1040
2018-04-16T05:48:22.851Z,1068
2018-04-16T05:49:33.127Z,1096
2018-04-16T05:50:43.370Z,1120
2018-04-16T05:51:53.543Z,1136
2018-04-16T05:53:03.736Z,1140
2018-04-16T05:54:13.960Z,1132
2018-04-16T05:55:24.156Z,1132
2018-04-16T05:56:34.341Z,1136
2018-04-16T05:57:44.633Z,1144
2018-04-16T05:58:54.930Z,1164
2018-04-16T06:00:05.164Z,1204
2018-04-16T06:01:15.321Z,1260
2018-04-16T06:02:25.613Z,1312
2018-04-16T06:03:35.772Z,1356
2018-04-16T06:04:45.940Z,1380
2018-04-16T06:05:56.146Z,1388
2018-04-16T06:07:06.400Z,1404
2018-04-16T06:08:16.682Z,1448
2018-04-16T06:09:26.837Z,1508
2018-04-16T06:10:37.107Z,1564
2018-04-16T06:11:47.288Z,1604
2018-04-16T06:12:57.469Z,1636
2018-04-16T06:14:07.799Z,1676
2018-04-16T06:15:18.003Z,1712
2018-04-16T06:16:27.780Z,1752
2018-04-16T06:17:37.936Z,1776
2018-04-16T06:18:48.129Z,1788
2018-04-16T06:19:58.289Z,1784
2018-04-16T06:21:08.451Z,1768
2018-04-16T06:22:18.004Z,1728
2018-04-16T06:23:28.155Z,1680
2018-04-16T06:24:38.360Z,1636
2018-04-16T06:25:48.536Z,1628
2018-04-16T06:26:58.730Z,1640
2018-04-16T06:28:08.880Z,1648
2018-04-16T06:29:19.067Z,1644
2018-04-16T06:30:29.237Z,1628
2018-04-16T06:31:39.516Z,1624
2018-04-16T06:32:49.676Z,1632
2018-04-16T06:33:59.875Z,1628
2018-04-16T06:35:10.033Z,1624
2018-04-16T06:36:20.188Z,1616
2018-04-16T06:37:30.307Z,1624
2018-04-16T06:38:40.507Z,1640
2018-04-16T06:39:50.693Z,1676
2018-04-16T06:41:00.901Z,1716
2018-04-16T06:42:11.172Z,1756
2018-04-16T06:43:21.376Z,1788
2018-04-16T06:44:31.586Z,1796
2018-04-16T06:45:41.835Z,1780
2018-04-16T06:46:51.997Z,1756
2018-04-16T06:48:01.793Z,1736
2018-04-16T06:49:11.976Z,1736
2018-04-16T06:50:22.166Z,1772
2018-04-16T06:51:32.340Z,1848
2018-04-16T06:52:42.538Z,1948
2018-04-16T06:53:52.740Z,2056
2018-04-16T06:55:02.928Z,2172
2018-04-16T06:56:13.054Z,2324
2018-04-16T06:57:23.192Z,2500
2018-04-16T06:58:33.390Z,2688
2018-04-16T06:59:43.311Z,2888
2018-04-16T07:00:53.573Z,3044
2018-04-16T07:02:04.083Z,3036
2018-04-16T07:03:14.304Z,2856
2018-04-16T07:04:24.485Z,2604
2018-04-16T07:05:34.327Z,2412
2018-04-16T07:06:44.567Z,2348
2018-04-16T07:07:54.726Z,2420
2018-04-16T07:09:04.918Z,2608
2018-04-16T07:10:15.159Z,2856
2018-04-16T07:11:25.083Z,3096
2018-04-16T07:12:34.877Z,3256
2018-04-16T07:13:45.244Z,3224
2018-04-16T07:14:55.403Z,2992
2018-04-16T07:16:05.873Z,2688
2018-04-16T07:17:15.760Z,2448
2018-04-16T07:18:25.653Z,2300
2018-04-16T07:19:35.834Z,2232
2018-04-16T07:20:45.690Z,2212
2018-04-16T07:21:55.590Z,2228
2018-04-16T07:23:05.527Z,2276
2018-04-16T07:24:15.782Z,2348
2018-04-16T07:25:26.004Z,2424
2018-04-16T07:26:35.888Z,2436
2018-04-16T07:27:46.092Z,2384
2018-04-16T07:28:55.859Z,2300
2018-04-16T07:30:05.696Z,2208
2018-04-16T07:31:15.910Z,2104
2018-04-16T07:32:26.128Z,1940
2018-04-16T07:33:36.436Z,1736
2018-04-16T07:34:46.682Z,1564
2018-04-16T07:35:56.900Z,1476
2018-04-16T07:37:07.054Z,1476
2018-04-16T07:38:17.240Z,1512
2018-04-16T07:39:27.386Z,1576
2018-04-16T07:40:37.578Z,1676
2018-04-16T07:41:47.734Z,1796
2018-04-16T07:42:57.933Z,1952
2018-04-16T07:44:08.089Z,2108
2018-04-16T07:45:18.006Z,2272
2018-04-16T07:46:28.164Z,2412
2018-04-16T07:47:38.316Z,2516
2018-04-16T07:48:48.345Z,2612
2018-04-16T07:49:58.279Z,2672
2018-04-16T07:51:08.465Z,2696
2018-04-16T07:52:18.674Z,2704
2018-04-16T07:53:28.824Z,2716
2018-04-16T07:54:38.787Z,2760
2018-04-16T07:55:48.951Z,2856
2018-04-16T07:56:59.094Z,2976
2018-04-16T07:58:09.233Z,3080
2018-04-16T07:59:19.414Z,3172
2018-04-16T08:00:29.659Z,3272
2018-04-16T08:01:40.031Z,3388
2018-04-16T08:02:50.194Z,3496
2018-04-16T08:04:00.380Z,3640
2018-04-16T08:05:10.522Z,3752
2018-04-16T08:06:20.736Z,3816
2018-04-16T08:07:30.942Z,3856
2018-04-16T08:08:41.132Z,3884
2018-04-16T08:09:51.320Z,3792
2018-04-16T08:11:01.465Z,3644
2018-04-16T08:12:11.669Z,3532
2018-04-16T08:13:21.815Z,3536
2018-04-16T08:14:31.960Z,3684
2018-04-16T08:15:42.123Z,3948
2018-04-16T08:16:52.335Z,4072
2018-04-16T08:18:02.521Z,4044
2018-04-16T08:19:12.713Z,3972
2018-04-16T08:20:22.914Z,3908
2018-04-16T08:21:32.737Z,3844
2018-04-16T08:22:42.889Z,3784
2018-04-16T08:23:52.674Z,3756
2018-04-16T08:25:02.868Z,3772
2018-04-16T08:26:12.827Z,3816
2018-04-16T08:27:22.968Z,3872
2018-04-16T08:28:33.171Z,3968
2018-04-16T08:29:43.364Z,3976
2018-04-16T08:30:53.506Z,3900
2018-04-16T08:32:03.711Z,3888
2018-04-16T08:33:14.014Z,3920
2018-04-16T08:34:24.212Z,4068
2018-04-16T08:35:34.423Z,4300
2018-04-16T08:36:44.599Z,4560
2018-04-16T08:37:54.801Z,4608
2018-04-16T08:39:04.939Z,4292
2018-04-16T08:40:15.182Z,3952
2018-04-16T08:41:25.516Z,3688
2018-04-16T08:42:35.703Z,3692
2018-04-16T08:43:45.924Z,3588
2018-04-16T08:44:56.158Z,3528
2018-04-16T08:46:06.046Z,3500
2018-04-16T08:47:16.191Z,3556
2018-04-16T08:48:26.397Z,3704
2018-04-16T08:49:36.655Z,3808
2018-04-16T08:50:46.796Z,3872
2018-04-16T08:51:56.998Z,3880
2018-04-16T08:53:07.261Z,3692
2018-04-16T08:54:17.469Z,3452
2018-04-16T08:55:27.357Z,3368
2018-04-16T08:56:37.492Z,3528
2018-04-16T08:57:47.629Z,3892
2018-04-16T08:58:57.813Z,4264
2018-04-16T09:00:07.785Z,4564
2018-04-16T09:01:17.681Z,4956
2018-04-16T09:02:27.835Z,5304
2018-04-16T09:03:38.002Z,5684
2018-04-16T09:04:48.150Z,6132
2018-04-16T09:05:58.333Z,6580
2018-04-16T09:07:08.218Z,6808
2018-04-16T09:08:18.388Z,6748
2018-04-16T09:09:28.551Z,6592
2018-04-16T09:10:38.481Z,6484
2018-04-16T09:11:48.624Z,6516
2018-04-16T09:12:58.441Z,6620
2018-04-16T09:14:08.660Z,6688
2018-04-16T09:15:18.940Z,6636
2018-04-16T09:16:29.133Z,6528
2018-04-16T09:17:39.302Z,6464
2018-04-16T09:18:49.549Z,6324
2018-04-16T09:19:59.696Z,6052
2018-04-16T09:21:09.871Z,5652
2018-04-16T09:22:19.635Z,5232
2018-04-16T09:23:29.769Z,4840
2018-04-16T09:24:39.933Z,4512
2018-04-16T09:25:50.098Z,4324
2018-04-16T09:27:00.312Z,4232
2018-04-16T09:28:10.520Z,4208
2018-04-16T09:29:20.700Z,4228
2018-04-16T09:30:30.871Z,4288
2018-04-16T09:31:41.070Z,4408
2018-04-16T09:32:51.362Z,4528
2018-04-16T09:34:01.497Z,4604
2018-04-16T09:35:11.639Z,4632
2018-04-16T09:36:21.794Z,4640
2018-04-16T09:37:31.970Z,4764
2018-04-16T09:38:42.118Z,5060
2018-04-16T09:39:52.269Z,5512
2018-04-16T09:41:02.262Z,5908
2018-04-16T09:42:12.432Z,6044
2018-04-16T09:43:22.631Z,5952
2018-04-16T09:44:32.788Z,5588
2018-04-16T09:45:43.001Z,5116
2018-04-16T09:46:53.178Z,4844
2018-04-16T09:48:03.075Z,4740
2018-04-16T09:49:13.002Z,4812
2018-04-16T09:50:22.961Z,5088
2018-04-16T09:51:33.143Z,5568
2018-04-16T09:52:43.314Z,6048
2018-04-16T09:53:53.489Z,6480
2018-04-16T09:55:03.702Z,6800
2018-04-16T09:56:13.837Z,7084
2018-04-16T09:57:24.034Z,7220
2018-04-16T09:58:33.995Z,7292
2018-04-16T09:59:44.194Z,7456
2018-04-16T10:00:54.512Z,7708
2018-04-16T10:02:04.728Z,8112
2018-04-16T10:03:14.888Z,8516
2018-04-16T10:04:24.844Z,8940
2018-04-16T10:05:35.124Z,9484
2018-04-16T10:06:45.322Z,9840
2018-04-16T10:07:55.641Z,9864
2018-04-16T10:09:05.813Z,9736
2018-04-16T10:10:16.111Z,9260
2018-04-16T10:11:26.446Z,8528
2018-04-16T10:12:36.627Z,8016
2018-04-16T10:13:46.783Z,7896
2018-04-16T10:14:56.947Z,7956
2018-04-16T10:16:07.128Z,7852
2018-04-16T10:17:17.346Z,7748
2018-04-16T10:18:27.620Z,7700
2018-04-16T10:19:37.861Z,7692
2018-04-16T10:20:48.116Z,7640
2018-04-16T10:21:58.298Z,7452
2018-04-16T10:23:08.208Z,7088
2018-04-16T10:24:18.344Z,6660
2018-04-16T10:25:28.543Z,6284
2018-04-16T10:26:38.774Z,6056
2018-04-16T10:27:48.913Z,5924
2018-04-16T10:28:59.134Z,5828
2018-04-16T10:30:09.286Z,5768
2018-04-16T10:31:19.526Z,5772
2018-04-16T10:32:29.867Z,5820
2018-04-16T10:33:40.035Z,5840
2018-04-16T10:34:50.198Z,5692
2018-04-16T10:36:00.394Z,5488
2018-04-16T10:37:10.715Z,5432
2018-04-16T10:38:20.875Z,5544
2018-04-16T10:39:31.038Z,5788
2018-04-16T10:40:41.248Z,6088
2018-04-16T10:41:51.440Z,6328
2018-04-16T10:43:01.384Z,6556
2018-04-16T10:44:11.543Z,6808
2018-04-16T10:45:21.739Z,7104
2018-04-16T10:46:31.965Z,7432
2018-04-16T10:47:42.270Z,7752
2018-04-16T10:48:52.463Z,7980
2018-04-16T10:50:02.632Z,8164
2018-04-16T10:51:12.561Z,8388
2018-04-16T10:52:22.713Z,8692
2018-04-16T10:53:32.853Z,9124
2018-04-16T10:54:43.020Z,9480
2018-04-16T10:55:53.200Z,9728
2018-04-16T10:57:03.393Z,10008
2018-04-16T10:58:13.607Z,10200
2018-04-16T10:59:23.767Z,10484
2018-04-16T11:00:33.947Z,10808
2018-04-16T11:01:44.086Z,11188
2018-04-16T11:02:54.304Z,11724
2018-04-16T11:04:04.489Z,12380
2018-04-16T11:05:14.658Z,13032
2018-04-16T11:06:24.965Z,13356
2018-04-16T11:07:35.107Z,13412
2018-04-16T11:08:45.125Z,13292
2018-04-16T11:09:55.348Z,13068
2018-04-16T11:11:06.489Z,12704
2018-04-16T11:12:16.896Z,12396
2018-04-16T11:13:27.127Z,12264
2018-04-16T11:14:37.328Z,12408
2018-04-16T11:15:47.506Z,12708
2018-04-16T11:16:57.657Z,12980
2018-04-16T11:18:07.964Z,13300
2018-04-16T11:19:18.346Z,13128
2018-04-16T11:20:28.514Z,12588
2018-04-16T11:21:38.686Z,11728
2018-04-16T11:22:48.969Z,10740
2018-04-16T11:23:59.159Z,9948
2018-04-16T11:25:09.403Z,9416
2018-04-16T11:26:19.562Z,9140
2018-04-16T11:27:29.771Z,9128
2018-04-16T11:28:39.924Z,9344
2018-04-16T11:29:50.149Z,9708
2018-04-16T11:31:00.418Z,10140
2018-04-16T11:32:10.319Z,10532
2018-04-16T11:33:20.508Z,10792
2018-04-16T11:34:30.665Z,10812
2018-04-16T11:35:40.871Z,10904
2018-04-16T11:36:51.068Z,11308
2018-04-16T11:38:01.458Z,11928
2018-04-16T11:39:11.620Z,12628
2018-04-16T11:40:21.545Z,13324
2018-04-16T11:41:31.818Z,13780
2018-04-16T11:42:41.979Z,14016
2018-04-16T11:43:52.156Z,13740
2018-04-16T11:45:02.308Z,13288
2018-04-16T11:46:12.468Z,12804
2018-04-16T11:47:22.657Z,12440
2018-04-16T11:48:32.857Z,12348
2018-04-16T11:49:43.003Z,12484
2018-04-16T11:50:53.195Z,12788
2018-04-16T11:52:03.411Z,13100
2018-04-16T11:53:13.606Z,13252
2018-04-16T11:54:23.862Z,13236
2018-04-16T11:55:34.145Z,13164
2018-04-16T11:56:44.388Z,13052
2018-04-16T11:57:54.632Z,12764
2018-04-16T11:59:04.816Z,12604
2018-04-16T12:00:15.006Z,12716
2018-04-16T12:01:25.221Z,13236
2018-04-16T12:02:35.426Z,14244
2018-04-16T12:03:45.585Z,16128
2018-04-16T12:04:55.877Z,19392
2018-04-16T12:06:06.037Z,20640
2018-04-16T12:07:16.372Z,21568
2018-04-16T12:08:26.531Z,23008
2018-04-16T12:09:36.762Z,23424
2018-04-16T12:10:46.931Z,22240
2018-04-16T12:11:57.141Z,20288
2018-04-16T12:13:07.411Z,19456
2018-04-16T12:14:17.593Z,18112
2018-04-16T12:15:27.761Z,17312
2018-04-16T12:16:38.025Z,17216
2018-04-16T12:17:48.361Z,16960
2018-04-16T12:18:58.545Z,16736
2018-04-16T12:20:08.758Z,16160
2018-04-16T12:21:18.996Z,15456
2018-04-16T12:22:28.978Z,14504
2018-04-16T12:23:39.125Z,13712
2018-04-16T12:24:49.323Z,13184
2018-04-16T12:25:59.514Z,13044
2018-04-16T12:27:09.677Z,12940
2018-04-16T12:28:19.875Z,12820
2018-04-16T12:29:30.039Z,12588
2018-04-16T12:30:40.208Z,12228
2018-04-16T12:31:50.369Z,11812
2018-04-16T12:33:00.736Z,11548
2018-04-16T12:34:10.975Z,11508
2018-04-16T12:35:21.174Z,11664
2018-04-16T12:36:31.381Z,12016
2018-04-16T12:37:41.629Z,12488
2018-04-16T12:38:51.790Z,12972
2018-04-16T12:40:01.948Z,13552
2018-04-16T12:41:12.242Z,14356
2018-04-16T12:42:22.522Z,15936
2018-04-16T12:43:32.767Z,18784
2018-04-16T12:44:42.945Z,20032
2018-04-16T12:45:53.164Z,20544
2018-04-16T12:47:03.340Z,20992
2018-04-16T12:48:13.683Z,19776
2018-04-16T12:49:23.830Z,18560
2018-04-16T12:50:33.998Z,17984
2018-04-16T12:51:44.156Z,17696
2018-04-16T12:52:54.382Z,17472
2018-04-16T12:54:04.539Z,17216
2018-04-16T12:55:14.696Z,16704
2018-04-16T12:56:24.852Z,16032
2018-04-16T12:57:35.005Z,15136
2018-04-16T12:58:45.174Z,14072
2018-04-16T12:59:55.370Z,13380
2018-04-16T13:01:05.589Z,13044
2018-04-16T13:02:15.739Z,13044
2018-04-16T13:03:25.999Z,13256
2018-04-16T13:04:36.243Z,13444
2018-04-16T13:05:46.480Z,13500
2018-04-16T13:06:56.705Z,13444
2018-04-16T13:08:06.495Z,13436
2018-04-16T13:09:16.634Z,13560
2018-04-16T13:10:26.422Z,13612
2018-04-16T13:11:36.616Z,13412
2018-04-16T13:12:46.469Z,13096
2018-04-16T13:13:56.732Z,12924
2018-04-16T13:15:06.870Z,13072
2018-04-16T13:16:17.074Z,13596
2018-04-16T13:17:28.253Z,14880
2018-04-16T13:18:38.458Z,18176
2018-04-16T13:19:48.250Z,20352
2018-04-16T13:20:58.405Z,22080
2018-04-16T13:22:08.631Z,24128
2018-04-16T13:23:18.881Z,23360
2018-04-16T13:24:28.809Z,23264
2018-04-16T13:25:38.966Z,23808
2018-04-16T13:26:49.136Z,25632
2018-04-16T13:27:59.350Z,30528
2018-04-16T13:29:09.519Z,33792
2018-04-16T13:30:19.698Z,32768
2018-04-16T13:31:29.875Z,30400
2018-04-16T13:32:40.027Z,28640
2018-04-16T13:33:50.235Z,32704
2018-04-16T13:35:00.434Z,31872
2018-04-16T13:36:10.631Z,28256
2018-04-16T13:37:20.796Z,24672
2018-04-16T13:38:30.975Z,25280
2018-04-16T13:39:41.139Z,21120
2018-04-16T13:40:51.319Z,19168
2018-04-16T13:42:01.494Z,17856
2018-04-16T13:43:11.787Z,16832
2018-04-16T13:44:21.950Z,16224
2018-04-16T13:45:32.134Z,16032
2018-04-16T13:46:42.316Z,16256
2018-04-16T13:47:52.222Z,16800
2018-04-16T13:49:02.380Z,17056
2018-04-16T13:50:12.623Z,16864
2018-04-16T13:51:22.867Z,16864
2018-04-16T13:52:33.049Z,16992
2018-04-16T13:53:43.234Z,16768
2018-04-16T13:54:53.446Z,16288
2018-04-16T13:56:03.632Z,16160
2018-04-16T13:57:13.855Z,15456
2018-04-16T13:58:24.013Z,14752
2018-04-16T13:59:34.200Z,14172
2018-04-16T14:00:44.400Z,13796
2018-04-16T14:01:54.566Z,13496
2018-04-16T14:03:04.769Z,13100
2018-04-16T14:04:14.998Z,12640
2018-04-16T14:05:24.571Z,12248
2018-04-16T14:06:34.392Z,12140
2018-04-16T14:07:44.650Z,12028
2018-04-16T14:08:54.818Z,11844
2018-04-16T14:10:05.063Z,11708
2018-04-16T14:11:15.236Z,11364
2018-04-16T14:12:25.386Z,11028
2018-04-16T14:13:35.560Z,10864
2018-04-16T14:14:45.839Z,10744
2018-04-16T14:15:56.021Z,10540
2018-04-16T14:17:06.168Z,10176
2018-04-16T14:18:16.361Z,9704
2018-04-16T14:19:26.654Z,9160
2018-04-16T14:20:36.878Z,9032
2018-04-16T14:21:47.059Z,8828
2018-04-16T14:22:57.252Z,8836
2018-04-16T14:24:07.436Z,8840
2018-04-16T14:25:17.666Z,8696
2018-04-16T14:26:27.885Z,8936
2018-04-16T14:27:38.055Z,8992
2018-04-16T14:28:48.263Z,8744
2018-04-16T14:29:58.514Z,8620
2018-04-16T14:31:08.841Z,8664
2018-04-16T14:32:19.044Z,8532
2018-04-16T14:33:29.283Z,8312
2018-04-16T14:34:39.453Z,8160
2018-04-16T14:35:49.675Z,8152
2018-04-16T14:36:59.892Z,8176
2018-04-16T14:38:10.148Z,8188
2018-04-16T14:39:20.364Z,8140
2018-04-16T14:40:30.577Z,8024
2018-04-16T14:41:40.743Z,7948
2018-04-16T14:42:51.071Z,7964
2018-04-16T14:44:01.231Z,8076
2018-04-16T14:45:11.392Z,8200
2018-04-16T14:46:21.616Z,8336
2018-04-16T14:47:31.864Z,8468
2018-04-16T14:48:42.094Z,8860
2018-04-16T14:49:52.325Z,8912
2018-04-16T14:51:02.519Z,8852
2018-04-16T14:52:12.838Z,8820
2018-04-16T14:53:22.758Z,8864
2018-04-16T14:54:32.961Z,8752
2018-04-16T14:55:43.193Z,8364
2018-04-16T14:56:53.159Z,7964
2018-04-16T14:58:03.449Z,7656
2018-04-16T14:59:13.688Z,7348
2018-04-16T15:00:23.908Z,7060
2018-04-16T15:01:34.081Z,6928
2018-04-16T15:02:44.259Z,6936
2018-04-16T15:03:54.490Z,6796
2018-04-16T15:05:04.733Z,6628
2018-04-16T15:06:14.937Z,6552
2018-04-16T15:07:25.139Z,6480
2018-04-16T15:08:35.373Z,6404
2018-04-16T15:09:45.607Z,6288
2018-04-16T15:10:55.792Z,6272
2018-04-16T15:12:06.034Z,6256
2018-04-16T15:13:16.274Z,6180
2018-04-16T15:14:26.497Z,6080
2018-04-16T15:15:36.436Z,5932
2018-04-16T15:16:46.617Z,5900
2018-04-16T15:17:56.840Z,5900
2018-04-16T15:19:07.045Z,5884
2018-04-16T15:20:17.283Z,5896
2018-04-16T15:21:27.490Z,5904
2018-04-16T15:22:37.668Z,5892
2018-04-16T15:23:47.896Z,5876
2018-04-16T15:24:58.114Z,5868
2018-04-16T15:26:08.305Z,5880
2018-04-16T15:27:18.500Z,5892
2018-04-16T15:28:28.783Z,5852
2018-04-16T15:29:39.922Z,5768
2018-04-16T15:30:50.119Z,5672
2018-04-16T15:32:00.345Z,5584
2018-04-16T15:33:10.564Z,5484
2018-04-16T15:34:20.795Z,5352
2018-04-16T15:35:31.012Z,5272
2018-04-16T15:36:41.259Z,5240
2018-04-16T15:37:51.575Z,5200
2018-04-16T15:39:01.758Z,5144
2018-04-16T15:40:11.937Z,5088
2018-04-16T15:41:22.114Z,5032
2018-04-16T15:42:32.344Z,4980
2018-04-16T15:43:42.511Z,4952
2018-04-16T15:44:52.692Z,4912
2018-04-16T15:46:02.977Z,4864
2018-04-16T15:47:13.270Z,4832
2018-04-16T15:48:23.224Z,4804
2018-04-16T15:49:33.427Z,4768
2018-04-16T15:50:43.366Z,4736
2018-04-16T15:51:53.627Z,4700
2018-04-16T15:53:03.867Z,4648
2018-04-16T15:54:14.230Z,4604
2018-04-16T15:55:24.400Z,4568
2018-04-16T15:56:34.567Z,4536